sensor_id;sensor_type;location;lat;lon;timestamp;P1;durP1;ratioP1;P2;durP2;ratioP2
15230;SDS011;32569;51.762;8.564;2022-08-19T00:00:33;8.77;;;7.87;;
15230;SDS011;32569;51.762;8.564;2022-08-19T00:03:00;8.57;;;7.77;;
15230;SDS011;32569;51.762;8.564;2022-08-19T00:05:26;10.60;;;8.70;;
15230;SDS011;32569;51.762;8.564;2022-08-19T00:07:54;8.50;;;7.70;;
15230;SDS011;32569;51.762;8.564;2022-08-19T00:10:21;8.83;;;7.90;;
15230;SDS011;32569;51.762;8.564;2022-08-19T00:12:49;9.70;;;7.60;;
15230;SDS011;32569;51.762;8.564;2022-08-19T00:15:17;8.50;;;7.60;;
15230;SDS011;32569;51.762;8.564;2022-08-19T00:17:46;8.87;;;8.03;;
15230;SDS011;32569;51.762;8.564;2022-08-19T00:20:14;9.73;;;7.73;;
15230;SDS011;32569;51.762;8.564;2022-08-19T00:22:44;9.77;;;8.77;;
15230;SDS011;32569;51.762;8.564;2022-08-19T00:25:14;9.83;;;8.93;;
15230;SDS011;32569;51.762;8.564;2022-08-19T00:27:41;10.07;;;9.13;;
15230;SDS011;32569;51.762;8.564;2022-08-19T00:30:08;10.37;;;8.60;;
15230;SDS011;32569;51.762;8.564;2022-08-19T00:32:36;11.97;;;9.40;;
15230;SDS011;32569;51.762;8.564;2022-08-19T00:35:03;11.57;;;9.13;;
15230;SDS011;32569;51.762;8.564;2022-08-19T00:37:31;9.63;;;8.63;;
15230;SDS011;32569;51.762;8.564;2022-08-19T00:39:59;10.20;;;8.63;;
15230;SDS011;32569;51.762;8.564;2022-08-19T00:42:28;10.17;;;8.23;;
15230;SDS011;32569;51.762;8.564;2022-08-19T00:44:55;8.73;;;7.87;;
15230;SDS011;32569;51.762;8.564;2022-08-19T00:47:22;8.67;;;7.87;;
15230;SDS011;32569;51.762;8.564;2022-08-19T00:49:50;9.67;;;7.93;;
15230;SDS011;32569;51.762;8.564;2022-08-19T00:52:21;9.03;;;8.13;;
15230;SDS011;32569;51.762;8.564;2022-08-19T00:54:53;9.83;;;8.50;;
15230;SDS011;32569;51.762;8.564;2022-08-19T00:57:22;8.47;;;7.67;;
15230;SDS011;32569;51.762;8.564;2022-08-19T00:59:55;10.03;;;9.03;;
15230;SDS011;32569;51.762;8.564;2022-08-19T01:02:23;9.80;;;8.80;;
15230;SDS011;32569;51.762;8.564;2022-08-19T01:04:51;8.47;;;7.70;;
15230;SDS011;32569;51.762;8.564;2022-08-19T01:07:17;10.23;;;9.00;;
15230;SDS011;32569;51.762;8.564;2022-08-19T01:09:44;10.90;;;8.50;;
15230;SDS011;32569;51.762;8.564;2022-08-19T01:12:11;10.50;;;8.30;;
15230;SDS011;32569;51.762;8.564;2022-08-19T01:14:38;8.83;;;8.00;;
15230;SDS011;32569;51.762;8.564;2022-08-19T01:17:07;10.20;;;7.97;;
15230;SDS011;32569;51.762;8.564;2022-08-19T01:19:36;10.60;;;8.40;;
15230;SDS011;32569;51.762;8.564;2022-08-19T01:22:06;8.97;;;8.03;;
15230;SDS011;32569;51.762;8.564;2022-08-19T01:24:38;8.53;;;7.70;;
15230;SDS011;32569;51.762;8.564;2022-08-19T01:27:05;10.90;;;8.67;;
15230;SDS011;32569;51.762;8.564;2022-08-19T01:29:34;13.10;;;9.13;;
15230;SDS011;32569;51.762;8.564;2022-08-19T01:32:04;9.50;;;8.43;;
15230;SDS011;32569;51.762;8.564;2022-08-19T01:34:31;11.17;;;8.83;;
15230;SDS011;32569;51.762;8.564;2022-08-19T01:36:59;9.57;;;8.50;;
15230;SDS011;32569;51.762;8.564;2022-08-19T01:39:31;12.70;;;9.00;;
15230;SDS011;32569;51.762;8.564;2022-08-19T01:41:59;10.23;;;9.23;;
15230;SDS011;32569;51.762;8.564;2022-08-19T01:44:28;12.20;;;9.60;;
15230;SDS011;32569;51.762;8.564;2022-08-19T01:46:54;10.53;;;9.43;;
15230;SDS011;32569;51.762;8.564;2022-08-19T01:49:22;12.10;;;10.27;;
15230;SDS011;32569;51.762;8.564;2022-08-19T01:51:50;12.27;;;11.07;;
15230;SDS011;32569;51.762;8.564;2022-08-19T01:54:19;11.50;;;10.30;;
15230;SDS011;32569;51.762;8.564;2022-08-19T01:56:48;13.53;;;12.20;;
15230;SDS011;32569;51.762;8.564;2022-08-19T01:59:17;12.57;;;11.37;;
15230;SDS011;32569;51.762;8.564;2022-08-19T02:01:46;12.47;;;10.80;;
15230;SDS011;32569;51.762;8.564;2022-08-19T02:04:13;11.97;;;10.87;;
15230;SDS011;32569;51.762;8.564;2022-08-19T02:06:39;13.33;;;11.93;;
15230;SDS011;32569;51.762;8.564;2022-08-19T02:09:06;13.20;;;11.43;;
15230;SDS011;32569;51.762;8.564;2022-08-19T02:11:34;11.87;;;10.67;;
15230;SDS011;32569;51.762;8.564;2022-08-19T02:14:03;13.83;;;11.13;;
15230;SDS011;32569;51.762;8.564;2022-08-19T02:16:34;12.80;;;11.37;;
15230;SDS011;32569;51.762;8.564;2022-08-19T02:19:01;12.10;;;10.90;;
15230;SDS011;32569;51.762;8.564;2022-08-19T02:21:29;14.37;;;11.27;;
15230;SDS011;32569;51.762;8.564;2022-08-19T02:23:56;13.40;;;10.67;;
15230;SDS011;32569;51.762;8.564;2022-08-19T02:26:23;12.57;;;11.30;;
15230;SDS011;32569;51.762;8.564;2022-08-19T02:28:51;13.90;;;11.53;;
15230;SDS011;32569;51.762;8.564;2022-08-19T02:31:20;11.60;;;10.40;;
15230;SDS011;32569;51.762;8.564;2022-08-19T02:33:50;11.93;;;10.77;;
15230;SDS011;32569;51.762;8.564;2022-08-19T02:36:17;12.40;;;10.77;;
15230;SDS011;32569;51.762;8.564;2022-08-19T02:38:45;12.07;;;10.87;;
15230;SDS011;32569;51.762;8.564;2022-08-19T02:41:11;11.77;;;10.50;;
15230;SDS011;32569;51.762;8.564;2022-08-19T02:43:40;13.43;;;11.43;;
15230;SDS011;32569;51.762;8.564;2022-08-19T02:46:11;12.43;;;11.13;;
15230;SDS011;32569;51.762;8.564;2022-08-19T02:48:39;11.70;;;10.60;;
15230;SDS011;32569;51.762;8.564;2022-08-19T02:51:07;13.63;;;12.17;;
15230;SDS011;32569;51.762;8.564;2022-08-19T02:53:34;12.80;;;11.33;;
15230;SDS011;32569;51.762;8.564;2022-08-19T02:56:05;16.27;;;11.67;;
15230;SDS011;32569;51.762;8.564;2022-08-19T02:58:32;12.23;;;11.03;;
15230;SDS011;32569;51.762;8.564;2022-08-19T03:00:59;13.10;;;11.70;;
15230;SDS011;32569;51.762;8.564;2022-08-19T03:03:26;11.73;;;10.57;;
15230;SDS011;32569;51.762;8.564;2022-08-19T03:06:02;12.60;;;11.30;;
15230;SDS011;32569;51.762;8.564;2022-08-19T03:08:31;14.10;;;11.50;;
15230;SDS011;32569;51.762;8.564;2022-08-19T03:10:58;13.00;;;11.60;;
15230;SDS011;32569;51.762;8.564;2022-08-19T03:13:24;13.97;;;12.53;;
15230;SDS011;32569;51.762;8.564;2022-08-19T03:15:51;12.27;;;11.03;;
15230;SDS011;32569;51.762;8.564;2022-08-19T03:18:18;13.70;;;11.47;;
15230;SDS011;32569;51.762;8.564;2022-08-19T03:20:45;13.97;;;11.27;;
15230;SDS011;32569;51.762;8.564;2022-08-19T03:23:14;15.67;;;11.93;;
15230;SDS011;32569;51.762;8.564;2022-08-19T03:25:44;13.97;;;12.07;;
15230;SDS011;32569;51.762;8.564;2022-08-19T03:28:13;16.13;;;13.10;;
15230;SDS011;32569;51.762;8.564;2022-08-19T03:30:41;16.80;;;13.63;;
15230;SDS011;32569;51.762;8.564;2022-08-19T03:33:09;15.00;;;13.50;;
15230;SDS011;32569;51.762;8.564;2022-08-19T03:35:37;14.83;;;13.40;;
15230;SDS011;32569;51.762;8.564;2022-08-19T03:38:04;15.47;;;13.47;;
15230;SDS011;32569;51.762;8.564;2022-08-19T03:40:31;14.70;;;13.17;;
15230;SDS011;32569;51.762;8.564;2022-08-19T03:43:01;17.80;;;14.07;;
15230;SDS011;32569;51.762;8.564;2022-08-19T03:45:27;14.53;;;12.90;;
15230;SDS011;32569;51.762;8.564;2022-08-19T03:47:54;14.43;;;12.93;;
15230;SDS011;32569;51.762;8.564;2022-08-19T03:50:21;15.70;;;14.17;;
15230;SDS011;32569;51.762;8.564;2022-08-19T03:52:49;15.20;;;13.63;;
15230;SDS011;32569;51.762;8.564;2022-08-19T03:55:16;14.60;;;13.07;;
15230;SDS011;32569;51.762;8.564;2022-08-19T03:57:43;15.40;;;13.90;;
15230;SDS011;32569;51.762;8.564;2022-08-19T04:00:15;15.60;;;13.43;;
15230;SDS011;32569;51.762;8.564;2022-08-19T04:02:42;18.83;;;15.43;;
15230;SDS011;32569;51.762;8.564;2022-08-19T04:05:09;16.40;;;14.87;;
15230;SDS011;32569;51.762;8.564;2022-08-19T04:07:36;15.60;;;14.07;;
15230;SDS011;32569;51.762;8.564;2022-08-19T04:10:03;16.40;;;14.70;;
15230;SDS011;32569;51.762;8.564;2022-08-19T04:12:30;15.70;;;14.10;;
15230;SDS011;32569;51.762;8.564;2022-08-19T04:14:57;17.83;;;15.30;;
15230;SDS011;32569;51.762;8.564;2022-08-19T04:17:25;16.60;;;14.97;;
15230;SDS011;32569;51.762;8.564;2022-08-19T04:19:52;17.63;;;15.27;;
15230;SDS011;32569;51.762;8.564;2022-08-19T04:22:18;17.10;;;15.30;;
15230;SDS011;32569;51.762;8.564;2022-08-19T04:24:45;18.17;;;16.37;;
15230;SDS011;32569;51.762;8.564;2022-08-19T04:27:11;18.77;;;16.80;;
15230;SDS011;32569;51.762;8.564;2022-08-19T04:29:39;19.33;;;17.37;;
15230;SDS011;32569;51.762;8.564;2022-08-19T04:32:06;19.83;;;17.77;;
15230;SDS011;32569;51.762;8.564;2022-08-19T04:34:34;17.97;;;16.30;;
15230;SDS011;32569;51.762;8.564;2022-08-19T04:37:01;19.60;;;17.70;;
15230;SDS011;32569;51.762;8.564;2022-08-19T04:39:32;19.00;;;17.30;;
15230;SDS011;32569;51.762;8.564;2022-08-19T04:42:17;19.80;;;17.03;;
15230;SDS011;32569;51.762;8.564;2022-08-19T04:45:01;19.73;;;17.70;;
15230;SDS011;32569;51.762;8.564;2022-08-19T04:47:29;19.53;;;17.63;;
15230;SDS011;32569;51.762;8.564;2022-08-19T04:49:57;19.93;;;17.80;;
15230;SDS011;32569;51.762;8.564;2022-08-19T04:52:24;22.33;;;17.33;;
15230;SDS011;32569;51.762;8.564;2022-08-19T04:54:50;19.60;;;17.50;;
15230;SDS011;32569;51.762;8.564;2022-08-19T04:57:17;23.42;;;21.15;;
15230;SDS011;32569;51.762;8.564;2022-08-19T04:59:43;21.17;;;18.93;;
15230;SDS011;32569;51.762;8.564;2022-08-19T05:02:10;20.53;;;17.33;;
15230;SDS011;32569;51.762;8.564;2022-08-19T05:04:37;20.47;;;18.37;;
15230;SDS011;32569;51.762;8.564;2022-08-19T05:07:05;20.50;;;18.43;;
15230;SDS011;32569;51.762;8.564;2022-08-19T05:09:32;20.23;;;18.17;;
15230;SDS011;32569;51.762;8.564;2022-08-19T05:11:59;20.20;;;17.97;;
15230;SDS011;32569;51.762;8.564;2022-08-19T05:14:26;20.70;;;18.50;;
15230;SDS011;32569;51.762;8.564;2022-08-19T05:16:53;20.40;;;17.93;;
15230;SDS011;32569;51.762;8.564;2022-08-19T05:19:20;19.10;;;17.10;;
15230;SDS011;32569;51.762;8.564;2022-08-19T05:22:06;19.87;;;17.70;;
15230;SDS011;32569;51.762;8.564;2022-08-19T05:24:50;19.30;;;17.30;;
15230;SDS011;32569;51.762;8.564;2022-08-19T05:27:16;20.43;;;18.23;;
15230;SDS011;32569;51.762;8.564;2022-08-19T05:29:43;20.10;;;17.70;;
15230;SDS011;32569;51.762;8.564;2022-08-19T05:32:09;18.63;;;16.63;;
15230;SDS011;32569;51.762;8.564;2022-08-19T05:34:36;19.70;;;17.67;;
15230;SDS011;32569;51.762;8.564;2022-08-19T05:37:04;18.80;;;17.00;;
15230;SDS011;32569;51.762;8.564;2022-08-19T05:39:34;19.03;;;17.13;;
15230;SDS011;32569;51.762;8.564;2022-08-19T05:42:03;19.37;;;16.47;;
15230;SDS011;32569;51.762;8.564;2022-08-19T05:44:32;19.17;;;17.20;;
15230;SDS011;32569;51.762;8.564;2022-08-19T05:47:01;19.50;;;17.63;;
15230;SDS011;32569;51.762;8.564;2022-08-19T05:49:31;18.13;;;16.20;;
15230;SDS011;32569;51.762;8.564;2022-08-19T05:51:58;17.57;;;15.83;;
15230;SDS011;32569;51.762;8.564;2022-08-19T05:54:30;17.23;;;15.73;;
15230;SDS011;32569;51.762;8.564;2022-08-19T05:56:57;17.93;;;16.03;;
15230;SDS011;32569;51.762;8.564;2022-08-19T05:59:23;19.03;;;16.87;;
15230;SDS011;32569;51.762;8.564;2022-08-19T06:01:50;16.77;;;15.03;;
15230;SDS011;32569;51.762;8.564;2022-08-19T06:04:19;15.70;;;14.20;;
15230;SDS011;32569;51.762;8.564;2022-08-19T06:06:46;16.30;;;14.80;;
15230;SDS011;32569;51.762;8.564;2022-08-19T06:09:16;16.53;;;14.33;;
15230;SDS011;32569;51.762;8.564;2022-08-19T06:11:45;16.13;;;14.60;;
15230;SDS011;32569;51.762;8.564;2022-08-19T06:14:13;15.93;;;14.43;;
15230;SDS011;32569;51.762;8.564;2022-08-19T06:16:42;16.27;;;14.60;;
15230;SDS011;32569;51.762;8.564;2022-08-19T06:19:11;16.13;;;14.60;;
15230;SDS011;32569;51.762;8.564;2022-08-19T06:21:40;15.87;;;14.27;;
15230;SDS011;32569;51.762;8.564;2022-08-19T06:24:09;16.07;;;14.47;;
15230;SDS011;32569;51.762;8.564;2022-08-19T06:26:39;15.70;;;14.30;;
15230;SDS011;32569;51.762;8.564;2022-08-19T06:29:09;16.33;;;14.13;;
15230;SDS011;32569;51.762;8.564;2022-08-19T06:31:40;16.40;;;14.70;;
15230;SDS011;32569;51.762;8.564;2022-08-19T06:34:07;16.80;;;15.03;;
15230;SDS011;32569;51.762;8.564;2022-08-19T06:36:35;17.57;;;15.73;;
15230;SDS011;32569;51.762;8.564;2022-08-19T06:39:04;16.17;;;14.47;;
15230;SDS011;32569;51.762;8.564;2022-08-19T06:41:33;16.10;;;14.50;;
15230;SDS011;32569;51.762;8.564;2022-08-19T06:44:01;17.00;;;15.30;;
15230;SDS011;32569;51.762;8.564;2022-08-19T06:46:29;16.27;;;14.83;;
15230;SDS011;32569;51.762;8.564;2022-08-19T06:48:56;17.37;;;15.53;;
15230;SDS011;32569;51.762;8.564;2022-08-19T06:51:23;17.73;;;16.00;;
15230;SDS011;32569;51.762;8.564;2022-08-19T06:53:52;17.27;;;15.53;;
15230;SDS011;32569;51.762;8.564;2022-08-19T06:56:21;17.33;;;15.60;;
15230;SDS011;32569;51.762;8.564;2022-08-19T06:58:50;17.17;;;15.37;;
15230;SDS011;32569;51.762;8.564;2022-08-19T07:01:18;19.10;;;15.97;;
15230;SDS011;32569;51.762;8.564;2022-08-19T07:03:46;17.43;;;15.27;;
15230;SDS011;32569;51.762;8.564;2022-08-19T07:06:14;16.90;;;15.00;;
15230;SDS011;32569;51.762;8.564;2022-08-19T07:08:44;16.80;;;14.03;;
15230;SDS011;32569;51.762;8.564;2022-08-19T07:11:14;14.83;;;13.23;;
15230;SDS011;32569;51.762;8.564;2022-08-19T07:13:42;15.90;;;14.20;;
15230;SDS011;32569;51.762;8.564;2022-08-19T07:16:10;15.00;;;13.57;;
15230;SDS011;32569;51.762;8.564;2022-08-19T07:18:38;15.50;;;13.90;;
15230;SDS011;32569;51.762;8.564;2022-08-19T07:21:07;16.57;;;13.53;;
15230;SDS011;32569;51.762;8.564;2022-08-19T07:23:36;15.97;;;13.53;;
15230;SDS011;32569;51.762;8.564;2022-08-19T07:26:04;14.93;;;13.37;;
15230;SDS011;32569;51.762;8.564;2022-08-19T07:28:31;13.87;;;12.47;;
15230;SDS011;32569;51.762;8.564;2022-08-19T07:30:58;15.20;;;13.13;;
15230;SDS011;32569;51.762;8.564;2022-08-19T07:33:26;14.00;;;12.07;;
15230;SDS011;32569;51.762;8.564;2022-08-19T07:35:55;14.47;;;12.27;;
15230;SDS011;32569;51.762;8.564;2022-08-19T07:38:23;11.47;;;10.43;;
15230;SDS011;32569;51.762;8.564;2022-08-19T07:40:49;13.27;;;10.70;;
15230;SDS011;32569;51.762;8.564;2022-08-19T07:43:17;11.30;;;9.50;;
15230;SDS011;32569;51.762;8.564;2022-08-19T07:45:45;11.30;;;10.17;;
15230;SDS011;32569;51.762;8.564;2022-08-19T07:48:12;12.03;;;10.57;;
15230;SDS011;32569;51.762;8.564;2022-08-19T07:50:39;11.87;;;10.67;;
15230;SDS011;32569;51.762;8.564;2022-08-19T07:53:06;13.50;;;11.27;;
15230;SDS011;32569;51.762;8.564;2022-08-19T07:55:34;12.23;;;10.87;;
15230;SDS011;32569;51.762;8.564;2022-08-19T07:58:00;10.53;;;9.40;;
15230;SDS011;32569;51.762;8.564;2022-08-19T08:00:27;11.97;;;10.73;;
15230;SDS011;32569;51.762;8.564;2022-08-19T08:02:54;10.80;;;9.80;;
15230;SDS011;32569;51.762;8.564;2022-08-19T08:05:20;11.13;;;10.03;;
15230;SDS011;32569;51.762;8.564;2022-08-19T08:08:05;11.97;;;10.67;;
15230;SDS011;32569;51.762;8.564;2022-08-19T08:10:51;10.37;;;9.33;;
15230;SDS011;32569;51.762;8.564;2022-08-19T08:13:17;10.47;;;9.13;;
15230;SDS011;32569;51.762;8.564;2022-08-19T08:15:44;9.20;;;8.30;;
15230;SDS011;32569;51.762;8.564;2022-08-19T08:18:11;9.00;;;8.17;;
15230;SDS011;32569;51.762;8.564;2022-08-19T08:20:38;10.93;;;8.73;;
15230;SDS011;32569;51.762;8.564;2022-08-19T08:23:04;10.07;;;9.17;;
15230;SDS011;32569;51.762;8.564;2022-08-19T08:25:51;10.97;;;9.83;;
15230;SDS011;32569;51.762;8.564;2022-08-19T08:28:20;10.40;;;9.37;;
15230;SDS011;32569;51.762;8.564;2022-08-19T08:30:48;10.13;;;8.70;;
15230;SDS011;32569;51.762;8.564;2022-08-19T08:33:17;9.53;;;8.63;;
15230;SDS011;32569;51.762;8.564;2022-08-19T08:35:44;11.05;;;10.05;;
15230;SDS011;32569;51.762;8.564;2022-08-19T08:38:12;11.30;;;9.63;;
15230;SDS011;32569;51.762;8.564;2022-08-19T08:40:39;11.80;;;10.70;;
15230;SDS011;32569;51.762;8.564;2022-08-19T08:43:19;13.37;;;10.77;;
15230;SDS011;32569;51.762;8.564;2022-08-19T08:45:51;14.83;;;11.27;;
15230;SDS011;32569;51.762;8.564;2022-08-19T08:48:24;12.00;;;10.50;;
15230;SDS011;32569;51.762;8.564;2022-08-19T08:50:58;11.37;;;10.23;;
15230;SDS011;32569;51.762;8.564;2022-08-19T08:53:27;10.70;;;9.20;;
15230;SDS011;32569;51.762;8.564;2022-08-19T08:55:54;11.07;;;9.90;;
15230;SDS011;32569;51.762;8.564;2022-08-19T08:58:24;13.53;;;9.80;;
15230;SDS011;32569;51.762;8.564;2022-08-19T09:00:55;16.23;;;11.23;;
15230;SDS011;32569;51.762;8.564;2022-08-19T09:03:23;11.07;;;9.83;;
15230;SDS011;32569;51.762;8.564;2022-08-19T09:05:55;12.03;;;10.43;;
15230;SDS011;32569;51.762;8.564;2022-08-19T09:08:29;10.80;;;9.23;;
15230;SDS011;32569;51.762;8.564;2022-08-19T09:11:06;9.80;;;8.90;;
15230;SDS011;32569;51.762;8.564;2022-08-19T09:13:38;9.57;;;8.67;;
15230;SDS011;32569;51.762;8.564;2022-08-19T09:16:12;9.13;;;8.23;;
15230;SDS011;32569;51.762;8.564;2022-08-19T09:18:42;8.57;;;7.77;;
15230;SDS011;32569;51.762;8.564;2022-08-19T09:21:10;10.97;;;7.70;;
15230;SDS011;32569;51.762;8.564;2022-08-19T09:23:38;9.00;;;8.07;;
15230;SDS011;32569;51.762;8.564;2022-08-19T09:26:08;8.93;;;7.30;;
15230;SDS011;32569;51.762;8.564;2022-08-19T09:28:39;10.03;;;8.07;;
15230;SDS011;32569;51.762;8.564;2022-08-19T09:31:08;7.90;;;5.90;;
15230;SDS011;32569;51.762;8.564;2022-08-19T09:33:35;7.87;;;7.27;;
15230;SDS011;32569;51.762;8.564;2022-08-19T09:36:03;8.47;;;7.43;;
15230;SDS011;32569;51.762;8.564;2022-08-19T09:38:32;9.63;;;6.90;;
15230;SDS011;32569;51.762;8.564;2022-08-19T09:41:02;9.80;;;8.80;;
15230;SDS011;32569;51.762;8.564;2022-08-19T09:43:30;7.53;;;6.93;;
15230;SDS011;32569;51.762;8.564;2022-08-19T09:45:58;7.43;;;6.73;;
15230;SDS011;32569;51.762;8.564;2022-08-19T09:48:25;7.27;;;6.60;;
15230;SDS011;32569;51.762;8.564;2022-08-19T09:50:52;11.70;;;10.60;;
15230;SDS011;32569;51.762;8.564;2022-08-19T09:53:19;10.73;;;8.00;;
15230;SDS011;32569;51.762;8.564;2022-08-19T09:55:47;8.10;;;7.40;;
15230;SDS011;32569;51.762;8.564;2022-08-19T09:58:15;6.93;;;6.23;;
15230;SDS011;32569;51.762;8.564;2022-08-19T10:00:41;6.90;;;6.30;;
15230;SDS011;32569;51.762;8.564;2022-08-19T10:03:09;10.30;;;7.27;;
15230;SDS011;32569;51.762;8.564;2022-08-19T10:05:37;7.93;;;7.17;;
15230;SDS011;32569;51.762;8.564;2022-08-19T10:08:17;7.40;;;6.17;;
15230;SDS011;32569;51.762;8.564;2022-08-19T10:10:47;6.70;;;6.10;;
15230;SDS011;32569;51.762;8.564;2022-08-19T10:13:16;7.80;;;6.70;;
15230;SDS011;32569;51.762;8.564;2022-08-19T10:15:46;6.67;;;6.00;;
15230;SDS011;32569;51.762;8.564;2022-08-19T10:18:17;6.30;;;5.20;;
15230;SDS011;32569;51.762;8.564;2022-08-19T10:20:45;5.20;;;4.70;;
15230;SDS011;32569;51.762;8.564;2022-08-19T10:23:12;6.17;;;5.60;;
15230;SDS011;32569;51.762;8.564;2022-08-19T10:25:40;5.40;;;4.90;;
15230;SDS011;32569;51.762;8.564;2022-08-19T10:28:07;5.60;;;4.97;;
15230;SDS011;32569;51.762;8.564;2022-08-19T10:30:37;6.77;;;5.73;;
15230;SDS011;32569;51.762;8.564;2022-08-19T10:33:04;5.87;;;5.27;;
15230;SDS011;32569;51.762;8.564;2022-08-19T10:35:33;5.90;;;5.40;;
15230;SDS011;32569;51.762;8.564;2022-08-19T10:38:01;7.00;;;6.30;;
15230;SDS011;32569;51.762;8.564;2022-08-19T10:40:28;6.53;;;5.97;;
15230;SDS011;32569;51.762;8.564;2022-08-19T10:42:55;6.40;;;5.33;;
15230;SDS011;32569;51.762;8.564;2022-08-19T10:45:21;6.60;;;6.00;;
15230;SDS011;32569;51.762;8.564;2022-08-19T10:47:52;7.17;;;5.50;;
15230;SDS011;32569;51.762;8.564;2022-08-19T10:50:19;5.97;;;5.43;;
15230;SDS011;32569;51.762;8.564;2022-08-19T10:53:05;5.87;;;5.30;;
15230;SDS011;32569;51.762;8.564;2022-08-19T10:55:34;5.13;;;4.70;;
15230;SDS011;32569;51.762;8.564;2022-08-19T10:58:20;5.83;;;5.00;;
15230;SDS011;32569;51.762;8.564;2022-08-19T11:00:51;5.23;;;4.83;;
15230;SDS011;32569;51.762;8.564;2022-08-19T11:03:19;3.90;;;3.50;;
15230;SDS011;32569;51.762;8.564;2022-08-19T11:05:46;3.63;;;3.33;;
15230;SDS011;32569;51.762;8.564;2022-08-19T11:08:15;4.17;;;3.73;;
15230;SDS011;32569;51.762;8.564;2022-08-19T11:10:41;4.20;;;3.80;;
15230;SDS011;32569;51.762;8.564;2022-08-19T11:13:09;4.50;;;3.77;;
15230;SDS011;32569;51.762;8.564;2022-08-19T11:15:35;3.83;;;3.60;;
15230;SDS011;32569;51.762;8.564;2022-08-19T11:18:03;4.10;;;3.80;;
15230;SDS011;32569;51.762;8.564;2022-08-19T11:20:30;3.67;;;3.37;;
15230;SDS011;32569;51.762;8.564;2022-08-19T11:22:57;4.63;;;4.20;;
15230;SDS011;32569;51.762;8.564;2022-08-19T11:25:25;4.00;;;3.70;;
15230;SDS011;32569;51.762;8.564;2022-08-19T11:27:52;3.70;;;3.40;;
15230;SDS011;32569;51.762;8.564;2022-08-19T11:30:20;5.13;;;3.20;;
15230;SDS011;32569;51.762;8.564;2022-08-19T11:32:47;4.77;;;3.20;;
15230;SDS011;32569;51.762;8.564;2022-08-19T11:35:14;5.90;;;3.20;;
15230;SDS011;32569;51.762;8.564;2022-08-19T11:37:41;4.03;;;3.73;;
15230;SDS011;32569;51.762;8.564;2022-08-19T11:40:08;5.33;;;3.50;;
15230;SDS011;32569;51.762;8.564;2022-08-19T11:42:37;3.70;;;3.40;;
15230;SDS011;32569;51.762;8.564;2022-08-19T11:45:21;3.80;;;3.50;;
15230;SDS011;32569;51.762;8.564;2022-08-19T11:47:48;4.00;;;3.70;;
15230;SDS011;32569;51.762;8.564;2022-08-19T11:50:15;5.47;;;3.83;;
15230;SDS011;32569;51.762;8.564;2022-08-19T11:52:43;5.27;;;4.50;;
15230;SDS011;32569;51.762;8.564;2022-08-19T11:55:10;5.17;;;4.33;;
15230;SDS011;32569;51.762;8.564;2022-08-19T11:57:38;4.27;;;3.97;;
15230;SDS011;32569;51.762;8.564;2022-08-19T12:00:06;5.67;;;3.90;;
15230;SDS011;32569;51.762;8.564;2022-08-19T12:02:34;3.80;;;3.50;;
15230;SDS011;32569;51.762;8.564;2022-08-19T12:05:01;4.67;;;4.23;;
15230;SDS011;32569;51.762;8.564;2022-08-19T12:07:28;4.07;;;3.50;;
15230;SDS011;32569;51.762;8.564;2022-08-19T12:09:56;5.13;;;4.63;;
15230;SDS011;32569;51.762;8.564;2022-08-19T12:12:23;5.63;;;4.13;;
15230;SDS011;32569;51.762;8.564;2022-08-19T12:14:51;4.17;;;3.87;;
15230;SDS011;32569;51.762;8.564;2022-08-19T12:17:21;3.50;;;3.30;;
15230;SDS011;32569;51.762;8.564;2022-08-19T12:19:48;4.93;;;3.87;;
15230;SDS011;32569;51.762;8.564;2022-08-19T12:22:15;4.20;;;3.67;;
15230;SDS011;32569;51.762;8.564;2022-08-19T12:24:41;4.33;;;4.00;;
15230;SDS011;32569;51.762;8.564;2022-08-19T12:27:08;4.93;;;4.40;;
15230;SDS011;32569;51.762;8.564;2022-08-19T12:29:35;4.17;;;3.87;;
15230;SDS011;32569;51.762;8.564;2022-08-19T12:32:03;4.63;;;4.20;;
15230;SDS011;32569;51.762;8.564;2022-08-19T12:34:30;5.10;;;4.60;;
15230;SDS011;32569;51.762;8.564;2022-08-19T12:36:58;4.40;;;4.00;;
15230;SDS011;32569;51.762;8.564;2022-08-19T12:39:26;5.20;;;4.50;;
15230;SDS011;32569;51.762;8.564;2022-08-19T12:41:53;4.90;;;4.50;;
15230;SDS011;32569;51.762;8.564;2022-08-19T12:44:20;4.70;;;4.30;;
15230;SDS011;32569;51.762;8.564;2022-08-19T12:46:47;4.13;;;3.53;;
15230;SDS011;32569;51.762;8.564;2022-08-19T12:49:15;6.37;;;4.40;;
15230;SDS011;32569;51.762;8.564;2022-08-19T12:51:42;4.87;;;4.30;;
15230;SDS011;32569;51.762;8.564;2022-08-19T12:54:09;4.37;;;3.97;;
15230;SDS011;32569;51.762;8.564;2022-08-19T12:56:35;4.70;;;4.30;;
15230;SDS011;32569;51.762;8.564;2022-08-19T12:59:02;3.60;;;3.30;;
15230;SDS011;32569;51.762;8.564;2022-08-19T13:01:30;6.60;;;3.47;;
15230;SDS011;32569;51.762;8.564;2022-08-19T13:03:57;3.93;;;3.63;;
15230;SDS011;32569;51.762;8.564;2022-08-19T13:06:25;3.77;;;3.17;;
15230;SDS011;32569;51.762;8.564;2022-08-19T13:08:53;3.63;;;3.33;;
15230;SDS011;32569;51.762;8.564;2022-08-19T13:11:20;3.93;;;3.47;;
15230;SDS011;32569;51.762;8.564;2022-08-19T13:13:49;4.03;;;3.73;;
15230;SDS011;32569;51.762;8.564;2022-08-19T13:16:18;4.17;;;3.80;;
15230;SDS011;32569;51.762;8.564;2022-08-19T13:18:47;3.73;;;3.33;;
15230;SDS011;32569;51.762;8.564;2022-08-19T13:21:17;3.93;;;3.40;;
15230;SDS011;32569;51.762;8.564;2022-08-19T13:23:47;3.90;;;3.50;;
15230;SDS011;32569;51.762;8.564;2022-08-19T13:26:14;4.37;;;3.60;;
15230;SDS011;32569;51.762;8.564;2022-08-19T13:28:42;3.37;;;3.07;;
15230;SDS011;32569;51.762;8.564;2022-08-19T13:31:27;4.00;;;3.70;;
15230;SDS011;32569;51.762;8.564;2022-08-19T13:34:13;3.90;;;3.60;;
15230;SDS011;32569;51.762;8.564;2022-08-19T13:36:41;3.40;;;3.20;;
15230;SDS011;32569;51.762;8.564;2022-08-19T13:39:09;4.33;;;3.43;;
15230;SDS011;32569;51.762;8.564;2022-08-19T13:41:35;3.93;;;3.63;;
15230;SDS011;32569;51.762;8.564;2022-08-19T13:44:03;3.87;;;3.47;;
15230;SDS011;32569;51.762;8.564;2022-08-19T13:46:31;4.57;;;4.18;;
15230;SDS011;32569;51.762;8.564;2022-08-19T13:48:57;4.40;;;4.00;;
15230;SDS011;32569;51.762;8.564;2022-08-19T13:51:24;3.80;;;3.57;;
15230;SDS011;32569;51.762;8.564;2022-08-19T13:53:51;3.80;;;3.60;;
15230;SDS011;32569;51.762;8.564;2022-08-19T13:56:19;3.28;;;2.97;;
15230;SDS011;32569;51.762;8.564;2022-08-19T13:58:46;3.92;;;3.35;;
15230;SDS011;32569;51.762;8.564;2022-08-19T14:01:18;3.70;;;3.40;;
15230;SDS011;32569;51.762;8.564;2022-08-19T14:03:45;3.73;;;3.40;;
15230;SDS011;32569;51.762;8.564;2022-08-19T14:06:12;4.38;;;3.88;;
15230;SDS011;32569;51.762;8.564;2022-08-19T14:08:39;3.53;;;3.33;;
15230;SDS011;32569;51.762;8.564;2022-08-19T14:11:07;4.67;;;3.30;;
15230;SDS011;32569;51.762;8.564;2022-08-19T14:13:35;3.70;;;3.40;;
15230;SDS011;32569;51.762;8.564;2022-08-19T14:16:05;4.20;;;3.90;;
15230;SDS011;32569;51.762;8.564;2022-08-19T14:18:33;4.10;;;3.70;;
15230;SDS011;32569;51.762;8.564;2022-08-19T14:21:00;4.00;;;3.70;;
15230;SDS011;32569;51.762;8.564;2022-08-19T14:23:27;4.80;;;3.60;;
15230;SDS011;32569;51.762;8.564;2022-08-19T14:26:02;8.40;;;3.60;;
15230;SDS011;32569;51.762;8.564;2022-08-19T14:28:29;3.50;;;3.30;;
15230;SDS011;32569;51.762;8.564;2022-08-19T14:30:57;4.57;;;3.30;;
15230;SDS011;32569;51.762;8.564;2022-08-19T14:33:24;3.63;;;3.33;;
15230;SDS011;32569;51.762;8.564;2022-08-19T14:35:50;3.33;;;3.03;;
15230;SDS011;32569;51.762;8.564;2022-08-19T14:38:17;3.67;;;3.38;;
15230;SDS011;32569;51.762;8.564;2022-08-19T14:40:44;3.78;;;3.47;;